createdAt,value
2023-01-09T00:01:27.545Z,61.90
2023-01-09T00:03:55.880Z,57.30
2023-01-09T00:06:24.011Z,64.17
2023-01-09T00:08:52.010Z,63.00
2023-01-09T00:11:20.498Z,57.80
2023-01-09T00:13:48.457Z,58.20
2023-01-09T00:16:17.212Z,51.97
2023-01-09T00:18:46.643Z,60.80
2023-01-09T00:21:15.328Z,57.90
2023-01-09T00:23:43.272Z,62.93
2023-01-09T00:26:13.073Z,61.57
2023-01-09T00:28:41.627Z,53.20
2023-01-09T00:31:10.616Z,53.93
2023-01-09T00:33:41.901Z,63.17
2023-01-09T00:36:12.209Z,60.67
2023-01-09T00:38:41.181Z,52.20
2023-01-09T00:41:13.478Z,61.60
2023-01-09T00:43:46.059Z,63.10
2023-01-09T00:46:16.263Z,61.93
2023-01-09T00:48:46.392Z,58.27
2023-01-09T00:51:17.373Z,57.00
2023-01-09T00:53:45.841Z,56.17
2023-01-09T00:56:17.782Z,56.87
2023-01-09T00:58:46.665Z,52.80
2023-01-09T01:01:15.112Z,54.00
2023-01-09T01:03:43.029Z,58.17
2023-01-09T01:06:28.248Z,56.60
2023-01-09T01:08:57.554Z,53.77
2023-01-09T01:11:26.212Z,57.13
2023-01-09T01:13:54.412Z,53.80
2023-01-09T01:16:22.388Z,57.77
2023-01-09T01:18:50.567Z,52.17
2023-01-09T01:21:19.253Z,50.00
2023-01-09T01:23:47.255Z,53.37
2023-01-09T01:26:17.943Z,53.00
2023-01-09T01:28:46.028Z,50.60
2023-01-09T01:31:18.617Z,56.50
2023-01-09T01:33:46.958Z,54.33
2023-01-09T01:36:17.420Z,60.33
2023-01-09T01:38:47.259Z,54.40
2023-01-09T01:41:29.321Z,56.73
2023-01-09T01:43:59.848Z,54.77
2023-01-09T01:46:28.213Z,53.90
2023-01-09T01:49:04.661Z,53.53
2023-01-09T01:51:36.105Z,47.63
2023-01-09T01:54:07.552Z,53.17
2023-01-09T01:56:41.163Z,56.20
2023-01-09T01:59:12.656Z,57.37
2023-01-09T02:01:44.070Z,55.83
2023-01-09T02:04:13.875Z,53.90
2023-01-09T02:06:42.952Z,54.83
2023-01-09T02:09:13.367Z,49.10
2023-01-09T02:11:46.738Z,58.00
2023-01-09T02:14:16.173Z,53.93
2023-01-09T02:16:56.290Z,53.67
2023-01-09T02:20:07.809Z,53.10
2023-01-09T02:22:43.540Z,50.67
2023-01-09T02:25:43.645Z,54.50
2023-01-09T02:28:37.858Z,54.37
2023-01-09T02:31:11.832Z,52.97
2023-01-09T02:33:53.375Z,54.43
2023-01-09T02:36:29.684Z,50.13
2023-01-09T02:39:16.940Z,56.70
2023-01-09T02:41:49.419Z,53.00
2023-01-09T02:44:23.554Z,54.40
2023-01-09T02:47:05.195Z,47.03
2023-01-09T02:49:34.506Z,53.83
2023-01-09T02:52:18.549Z,50.87
2023-01-09T02:54:56.907Z,58.13
2023-01-09T02:57:52.760Z,51.43
2023-01-09T03:00:29.991Z,52.87
2023-01-09T03:03:06.036Z,52.93
2023-01-09T03:05:41.260Z,53.90
2023-01-09T03:08:15.193Z,50.30
2023-01-09T03:10:51.021Z,55.37
2023-01-09T03:13:21.703Z,54.03
2023-01-09T03:15:52.031Z,53.93
2023-01-09T03:18:25.577Z,50.27
2023-01-09T03:20:55.148Z,52.97
2023-01-09T03:23:23.246Z,54.90
2023-01-09T03:25:51.187Z,49.77
2023-01-09T03:28:27.002Z,56.20
2023-01-09T03:30:55.305Z,50.07
2023-01-09T03:33:24.593Z,50.83
2023-01-09T03:35:52.552Z,52.90
2023-01-09T03:38:20.465Z,50.90
2023-01-09T03:40:48.423Z,49.47
2023-01-09T03:43:16.382Z,56.17
2023-01-09T03:45:44.767Z,54.90
2023-01-09T03:48:12.734Z,50.90
2023-01-09T03:50:42.514Z,53.30
2023-01-09T03:53:10.512Z,51.13
2023-01-09T03:55:38.479Z,51.13
2023-01-09T03:58:06.459Z,49.77
2023-01-09T04:00:34.403Z,48.23
2023-01-09T04:03:02.347Z,46.47
2023-01-09T04:05:30.264Z,47.23
2023-01-09T04:07:59.571Z,45.30
2023-01-09T04:10:27.485Z,46.57
2023-01-09T04:12:55.419Z,49.30
2023-01-09T04:15:23.932Z,50.23
2023-01-09T04:17:51.908Z,47.07
2023-01-09T04:20:20.148Z,41.67
2023-01-09T04:22:48.072Z,44.90
2023-01-09T04:25:17.420Z,43.80
2023-01-09T04:27:45.314Z,47.00
2023-01-09T04:30:13.865Z,44.50
2023-01-09T04:32:41.781Z,48.40
2023-01-09T04:35:10.573Z,48.30
2023-01-09T04:37:40.385Z,46.00
2023-01-09T04:40:10.424Z,43.80
2023-01-09T04:42:40.049Z,44.07
2023-01-09T04:45:10.764Z,47.43
2023-01-09T04:47:39.162Z,47.40
2023-01-09T04:50:07.621Z,48.77
2023-01-09T04:52:37.092Z,44.47
2023-01-09T04:55:08.141Z,43.23
2023-01-09T04:57:36.725Z,50.10
2023-01-09T05:00:09.722Z,50.83
2023-01-09T05:02:37.834Z,44.03
2023-01-09T05:05:09.698Z,44.90
2023-01-09T05:07:39.229Z,44.30
2023-01-09T05:10:08.803Z,46.67
2023-01-09T05:12:36.937Z,43.53
2023-01-09T05:15:07.892Z,42.20
2023-01-09T05:17:36.209Z,50.77
2023-01-09T05:20:04.423Z,41.60
2023-01-09T05:22:32.473Z,40.97
2023-01-09T05:25:00.686Z,49.30
2023-01-09T05:27:30.349Z,45.73
2023-01-09T05:29:58.305Z,49.83
2023-01-09T05:32:27.597Z,47.60
2023-01-09T05:34:55.570Z,45.70
2023-01-09T05:37:23.476Z,43.00
2023-01-09T05:39:51.424Z,40.57
2023-01-09T05:42:19.332Z,43.87
2023-01-09T05:44:47.292Z,38.77
2023-01-09T05:47:15.271Z,42.43
2023-01-09T05:49:44.676Z,45.43
2023-01-09T05:52:12.590Z,42.20
2023-01-09T05:54:40.491Z,40.73
2023-01-09T05:57:08.416Z,46.73
2023-01-09T05:59:36.315Z,41.60
2023-01-09T06:02:04.479Z,45.10
2023-01-09T06:04:32.444Z,47.37
2023-01-09T06:07:01.824Z,43.97
2023-01-09T06:09:30.715Z,44.33
2023-01-09T06:11:58.781Z,45.93
2023-01-09T06:14:26.697Z,43.60
2023-01-09T06:16:54.653Z,43.13
2023-01-09T06:19:22.702Z,44.53
2023-01-09T06:21:50.601Z,42.83
2023-01-09T06:24:19.944Z,49.43
2023-01-09T06:26:47.842Z,45.10
2023-01-09T06:29:16.365Z,46.90
2023-01-09T06:31:44.291Z,45.67
2023-01-09T06:34:12.878Z,44.40
2023-01-09T06:36:41.045Z,44.23
2023-01-09T06:39:09.020Z,48.57
2023-01-09T06:41:38.460Z,40.40
2023-01-09T06:44:06.426Z,46.00
2023-01-09T06:46:34.471Z,44.07
2023-01-09T06:49:02.609Z,44.33
2023-01-09T06:51:31.002Z,43.20
2023-01-09T06:53:59.046Z,42.87
2023-01-09T06:56:27.112Z,41.40
2023-01-09T06:58:56.684Z,48.10
2023-01-09T07:01:24.686Z,42.03
2023-01-09T07:03:52.766Z,41.33
2023-01-09T07:06:20.831Z,40.30
2023-01-09T07:08:48.768Z,38.20
2023-01-09T07:11:16.730Z,42.17
2023-01-09T07:13:45.041Z,40.20
2023-01-09T07:16:19.170Z,42.10
2023-01-09T07:18:47.771Z,36.20
2023-01-09T07:21:15.812Z,41.30
2023-01-09T07:23:43.753Z,37.60
2023-01-09T07:26:11.650Z,36.53
2023-01-09T07:28:39.609Z,36.43
2023-01-09T07:31:07.834Z,41.23
2023-01-09T07:33:37.202Z,37.47
2023-01-09T07:36:05.591Z,36.73
2023-01-09T07:38:33.536Z,36.50
2023-01-09T07:41:01.692Z,35.37
2023-01-09T07:43:29.686Z,37.47
2023-01-09T07:45:57.688Z,38.83
2023-01-09T07:48:26.070Z,36.77
2023-01-09T07:50:55.367Z,36.73
2023-01-09T07:53:23.283Z,39.30
2023-01-09T07:55:51.224Z,37.20
2023-01-09T07:58:19.113Z,41.50
2023-01-09T08:00:47.061Z,41.03
2023-01-09T08:03:15.006Z,37.57
2023-01-09T08:05:42.999Z,38.00
2023-01-09T08:08:13.674Z,34.97
2023-01-09T08:10:41.673Z,34.80
2023-01-09T08:13:09.659Z,37.27
2023-01-09T08:15:37.718Z,39.57
2023-01-09T08:18:05.872Z,33.93
2023-01-09T08:20:33.934Z,35.23
2023-01-09T08:23:01.909Z,36.57
2023-01-09T08:25:31.244Z,38.83
2023-01-09T08:27:59.148Z,33.27
2023-01-09T08:30:27.163Z,36.33
2023-01-09T08:32:55.585Z,39.13
2023-01-09T08:35:23.589Z,33.60
2023-01-09T08:37:51.527Z,35.70
2023-01-09T08:40:19.983Z,42.47
2023-01-09T08:43:06.703Z,35.47
2023-01-09T08:46:04.201Z,40.27
2023-01-09T08:48:32.218Z,38.13
2023-01-09T08:51:00.169Z,36.97
2023-01-09T08:53:28.484Z,40.33
2023-01-09T08:55:56.398Z,35.73
2023-01-09T08:58:25.619Z,34.60
2023-01-09T09:00:53.661Z,31.73
2023-01-09T09:03:21.780Z,31.87
2023-01-09T09:05:50.948Z,33.93
2023-01-09T09:08:20.218Z,36.87
2023-01-09T09:10:48.192Z,31.57
2023-01-09T09:13:16.165Z,32.23
2023-01-09T09:15:45.456Z,36.13
2023-01-09T09:18:13.374Z,36.37
2023-01-09T09:20:41.424Z,33.00
2023-01-09T09:23:09.537Z,35.77
2023-01-09T09:25:38.464Z,30.83
2023-01-09T09:28:07.067Z,36.20
2023-01-09T09:30:35.239Z,35.13
2023-01-09T09:33:05.933Z,29.63
2023-01-09T09:35:34.764Z,34.97
2023-01-09T09:38:05.651Z,32.07
2023-01-09T09:40:52.399Z,34.13
2023-01-09T09:44:07.957Z,37.67
2023-01-09T09:46:43.553Z,33.27
2023-01-09T09:49:17.436Z,36.00
2023-01-09T09:51:57.389Z,33.07
2023-01-09T09:54:31.664Z,45.77
2023-01-09T09:57:03.266Z,36.50
2023-01-09T09:59:34.341Z,38.63
2023-01-09T10:02:05.935Z,37.23
2023-01-09T10:04:37.933Z,33.80
2023-01-09T10:07:09.758Z,33.20
2023-01-09T10:09:48.357Z,40.53
2023-01-09T10:12:28.185Z,38.30
2023-01-09T10:14:58.443Z,36.20
2023-01-09T10:17:44.420Z,37.87
2023-01-09T10:20:45.764Z,32.20
2023-01-09T10:23:28.202Z,31.23
2023-01-09T10:26:02.665Z,31.43
2023-01-09T10:28:55.550Z,32.87
2023-01-09T10:31:34.369Z,31.70
2023-01-09T10:34:15.510Z,37.00
2023-01-09T10:36:59.206Z,28.70
2023-01-09T10:39:34.458Z,36.23
2023-01-09T10:42:12.223Z,32.77
2023-01-09T10:44:47.085Z,35.17
2023-01-09T10:47:19.329Z,35.40
2023-01-09T10:49:50.257Z,34.97
2023-01-09T10:52:20.942Z,33.90
2023-01-09T10:54:56.000Z,30.37
2023-01-09T10:57:42.695Z,33.83
2023-01-09T11:00:18.342Z,35.93
2023-01-09T11:02:47.054Z,36.80
2023-01-09T11:05:20.031Z,36.90
2023-01-09T11:07:54.339Z,33.37
2023-01-09T11:10:25.349Z,34.70
2023-01-09T11:13:15.044Z,33.10
2023-01-09T11:15:43.114Z,35.37
2023-01-09T11:18:19.442Z,30.47
2023-01-09T11:20:47.438Z,38.20
2023-01-09T11:23:31.690Z,33.57
2023-01-09T11:26:02.628Z,30.00
2023-01-09T11:28:31.189Z,36.40
2023-01-09T11:31:01.277Z,34.87
2023-01-09T11:33:31.600Z,33.93
2023-01-09T11:36:08.043Z,39.47
2023-01-09T11:38:50.598Z,35.17
2023-01-09T11:41:22.068Z,32.53
2023-01-09T11:43:52.590Z,32.80
2023-01-09T11:46:38.564Z,35.73
2023-01-09T11:49:22.842Z,33.37
2023-01-09T11:52:15.239Z,32.53
2023-01-09T11:54:49.519Z,34.87
2023-01-09T11:57:17.818Z,34.33
2023-01-09T11:59:45.780Z,39.37
2023-01-09T12:02:33.850Z,36.10
2023-01-09T12:05:09.958Z,40.97
2023-01-09T12:08:07.543Z,32.00
2023-01-09T12:10:49.961Z,33.50
2023-01-09T12:13:32.371Z,41.80
2023-01-09T12:16:08.980Z,40.83
2023-01-09T12:18:53.285Z,45.77
2023-01-09T12:21:34.523Z,40.43
2023-01-09T12:24:21.026Z,36.83
2023-01-09T12:27:00.453Z,39.07
2023-01-09T12:29:46.307Z,40.67
2023-01-09T12:32:23.435Z,37.40
2023-01-09T12:35:01.326Z,43.53
2023-01-09T12:38:02.446Z,39.43
2023-01-09T12:40:50.957Z,41.37
2023-01-09T12:43:30.573Z,40.70
2023-01-09T12:46:08.473Z,42.10
2023-01-09T12:49:00.860Z,38.17
2023-01-09T12:51:33.628Z,40.77
2023-01-09T12:54:06.916Z,40.87
2023-01-09T12:56:38.882Z,40.67
2023-01-09T12:59:30.058Z,42.83
2023-01-09T13:02:07.797Z,38.90
2023-01-09T13:04:39.966Z,39.30
2023-01-09T13:07:18.977Z,44.03
2023-01-09T13:09:51.358Z,46.43
2023-01-09T13:12:22.314Z,41.47
2023-01-09T13:14:55.877Z,38.00
2023-01-09T13:17:28.791Z,40.17
2023-01-09T13:19:56.748Z,43.80
2023-01-09T13:22:27.119Z,38.53
2023-01-09T13:25:14.440Z,34.73
2023-01-09T13:27:46.277Z,50.53
2023-01-09T13:30:25.639Z,40.70
2023-01-09T13:33:04.161Z,48.03
2023-01-09T13:35:32.089Z,45.37
2023-01-09T13:38:00.111Z,46.97
2023-01-09T13:40:30.554Z,49.10
2023-01-09T13:43:02.083Z,45.90
2023-01-09T13:45:33.822Z,49.87
2023-01-09T13:48:29.453Z,56.27
2023-01-09T13:51:31.107Z,55.63
2023-01-09T13:53:59.205Z,50.07
2023-01-09T13:56:27.631Z,64.90
2023-01-09T13:59:02.729Z,54.60
2023-01-09T14:01:47.521Z,50.67
2023-01-09T14:04:45.204Z,47.97
2023-01-09T14:07:24.674Z,46.60
2023-01-09T14:09:58.346Z,45.53
2023-01-09T14:12:27.570Z,51.90
2023-01-09T14:14:58.622Z,51.17
2023-01-09T14:17:35.456Z,44.17
2023-01-09T14:20:07.767Z,47.27
2023-01-09T14:22:45.800Z,47.63
2023-01-09T14:25:27.122Z,49.43
2023-01-09T14:28:11.613Z,57.27
2023-01-09T14:31:00.775Z,46.43
2023-01-09T14:33:32.606Z,52.00
2023-01-09T14:36:15.995Z,56.20
2023-01-09T14:38:46.549Z,57.63
2023-01-09T14:41:45.828Z,53.40
2023-01-09T14:44:28.360Z,68.00
2023-01-09T14:47:00.336Z,55.80
2023-01-09T14:49:35.353Z,58.70
2023-01-09T14:52:09.136Z,53.00
2023-01-09T14:54:41.322Z,50.93
2023-01-09T14:57:25.372Z,50.50
2023-01-09T14:59:57.868Z,47.87
2023-01-09T15:02:28.603Z,46.13
2023-01-09T15:05:01.563Z,41.97
2023-01-09T15:07:34.743Z,42.83
2023-01-09T15:10:04.407Z,45.33
2023-01-09T15:12:33.165Z,43.63
2023-01-09T15:15:03.297Z,47.93
2023-01-09T15:17:34.891Z,48.20
2023-01-09T15:20:07.455Z,45.97
2023-01-09T15:22:37.487Z,60.10
2023-01-09T15:25:33.634Z,106.67
2023-01-09T15:28:20.936Z,81.23
2023-01-09T15:30:57.573Z,61.27
2023-01-09T15:33:25.939Z,50.00
2023-01-09T15:36:00.368Z,43.57
2023-01-09T15:38:30.614Z,45.90
2023-01-09T15:41:00.709Z,43.07
2023-01-09T15:43:31.008Z,48.07
2023-01-09T15:45:59.438Z,47.60
2023-01-09T15:48:30.604Z,41.60
2023-01-09T15:51:04.139Z,45.70
2023-01-09T15:53:32.601Z,44.27
2023-01-09T15:56:24.017Z,47.23
2023-01-09T15:58:53.296Z,43.67
2023-01-09T16:01:28.632Z,44.93
2023-01-09T16:03:59.686Z,45.47
2023-01-09T16:06:30.679Z,47.80
2023-01-09T16:09:00.437Z,46.17
2023-01-09T16:11:31.244Z,42.40
2023-01-09T16:14:10.910Z,49.10
2023-01-09T16:16:39.332Z,44.10
2023-01-09T16:19:27.511Z,43.77
2023-01-09T16:22:00.488Z,41.77
2023-01-09T16:24:29.680Z,47.13
2023-01-09T16:27:24.095Z,47.43
2023-01-09T16:29:57.533Z,47.00
2023-01-09T16:32:29.428Z,43.00
2023-01-09T16:34:58.721Z,45.50
2023-01-09T16:37:28.959Z,49.83
2023-01-09T16:40:25.622Z,45.63
2023-01-09T16:43:02.000Z,46.90
2023-01-09T16:45:32.720Z,46.40
2023-01-09T16:48:01.355Z,49.07
2023-01-09T16:50:29.815Z,43.23
2023-01-09T16:53:03.556Z,46.03
2023-01-09T16:55:32.179Z,46.33
2023-01-09T16:58:00.157Z,45.57
2023-01-09T17:00:28.223Z,45.90
2023-01-09T17:02:57.224Z,46.13
2023-01-09T17:05:25.276Z,49.77
2023-01-09T17:07:53.308Z,46.17
2023-01-09T17:10:23.720Z,44.73
2023-01-09T17:12:51.682Z,46.70
2023-01-09T17:15:19.646Z,48.00
2023-01-09T17:17:47.556Z,47.97
2023-01-09T17:20:17.531Z,48.20
2023-01-09T17:22:45.492Z,47.07
2023-01-09T17:25:34.910Z,47.93
2023-01-09T17:28:36.126Z,45.53
2023-01-09T17:31:06.701Z,51.30
2023-01-09T17:33:35.218Z,63.00
2023-01-09T17:36:03.998Z,58.87
2023-01-09T17:38:31.946Z,57.00
2023-01-09T17:41:00.002Z,49.93
2023-01-09T17:43:29.333Z,56.60
2023-01-09T17:45:58.717Z,55.40
2023-01-09T17:48:26.872Z,54.10
2023-01-09T17:50:54.847Z,61.23
2023-01-09T17:53:24.765Z,61.43
2023-01-09T17:55:52.821Z,59.17
2023-01-09T17:58:26.791Z,59.97
2023-01-09T18:00:56.088Z,61.57
2023-01-09T18:03:25.955Z,61.07
2023-01-09T18:05:54.186Z,57.90
2023-01-09T18:08:22.061Z,68.87
2023-01-09T18:10:50.646Z,63.10
2023-01-09T18:13:18.871Z,66.00
2023-01-09T18:15:47.546Z,66.07
2023-01-09T18:18:17.130Z,66.77
2023-01-09T18:20:46.229Z,59.33
2023-01-09T18:23:14.417Z,66.50
2023-01-09T18:25:43.196Z,70.10
2023-01-09T18:28:16.666Z,69.20
2023-01-09T18:30:47.884Z,67.37
2023-01-09T18:33:18.463Z,63.40
2023-01-09T18:35:46.739Z,67.77
2023-01-09T18:38:15.562Z,67.50
2023-01-09T18:40:43.489Z,64.13
2023-01-09T18:43:12.167Z,66.80
2023-01-09T18:45:40.457Z,70.40
2023-01-09T18:48:09.517Z,64.90
2023-01-09T18:50:38.835Z,66.10
2023-01-09T18:53:07.418Z,72.13
2023-01-09T18:55:37.682Z,63.97
2023-01-09T18:58:06.392Z,65.53
2023-01-09T19:00:34.795Z,69.73
2023-01-09T19:03:02.731Z,67.57
2023-01-09T19:05:32.686Z,66.17
2023-01-09T19:08:02.097Z,62.00
2023-01-09T19:10:30.207Z,70.73
2023-01-09T19:12:58.155Z,69.40
2023-01-09T19:15:26.831Z,70.60
2023-01-09T19:17:55.545Z,67.93
2023-01-09T19:20:23.470Z,64.13
2023-01-09T19:22:51.518Z,64.37
2023-01-09T19:25:21.355Z,55.67
2023-01-09T19:27:49.316Z,59.93
2023-01-09T19:30:17.986Z,58.10
2023-01-09T19:32:46.260Z,56.20
2023-01-09T19:35:14.401Z,60.40
2023-01-09T19:37:42.340Z,62.63
2023-01-09T19:40:11.742Z,63.37
2023-01-09T19:42:41.396Z,62.60
2023-01-09T19:45:10.229Z,63.00
2023-01-09T19:47:38.275Z,60.73
2023-01-09T19:50:08.363Z,68.37
2023-01-09T19:52:37.441Z,66.77
2023-01-09T19:55:05.928Z,60.27
2023-01-09T19:57:33.945Z,61.03
2023-01-09T20:00:03.354Z,67.57
2023-01-09T20:02:40.595Z,65.57
2023-01-09T20:05:09.386Z,73.97
2023-01-09T20:07:37.592Z,74.70
2023-01-09T20:10:06.371Z,83.60
2023-01-09T20:12:34.281Z,85.63
2023-01-09T20:15:04.257Z,82.50
2023-01-09T20:17:34.109Z,84.33
2023-01-09T20:20:02.057Z,97.60
2023-01-09T20:22:30.023Z,82.50
2023-01-09T20:24:58.180Z,87.60
2023-01-09T20:27:26.203Z,103.93
2023-01-09T20:29:54.119Z,92.87
2023-01-09T20:32:23.418Z,100.20
2023-01-09T20:34:51.419Z,98.07
2023-01-09T20:37:19.373Z,107.43
2023-01-09T20:39:47.528Z,116.83
2023-01-09T20:42:15.501Z,106.60
2023-01-09T20:44:43.413Z,108.90
2023-01-09T20:47:11.338Z,108.93
2023-01-09T20:49:40.610Z,113.70
2023-01-09T20:52:08.507Z,136.50
2023-01-09T20:54:36.561Z,116.33
2023-01-09T20:57:04.577Z,107.73
2023-01-09T20:59:32.468Z,101.67
2023-01-09T21:02:00.496Z,97.73
2023-01-09T21:04:29.577Z,93.70
2023-01-09T21:06:58.922Z,91.70
2023-01-09T21:09:29.081Z,91.53
2023-01-09T21:11:57.064Z,84.37
2023-01-09T21:14:24.976Z,82.13
2023-01-09T21:16:54.887Z,85.83
2023-01-09T21:19:23.573Z,89.13
2023-01-09T21:21:53.243Z,90.27
2023-01-09T21:24:23.125Z,89.80
2023-01-09T21:26:51.025Z,86.40
2023-01-09T21:29:19.028Z,90.70
2023-01-09T21:31:47.026Z,98.93
2023-01-09T21:34:17.407Z,106.00
2023-01-09T21:36:48.627Z,100.87
2023-01-09T21:39:17.103Z,103.40
2023-01-09T21:42:04.057Z,94.70
2023-01-09T21:44:49.720Z,92.50
2023-01-09T21:47:17.709Z,94.87
2023-01-09T21:49:46.040Z,90.33
2023-01-09T21:52:14.990Z,83.37
2023-01-09T21:54:43.669Z,88.03
2023-01-09T21:57:13.839Z,105.23
2023-01-09T21:59:42.192Z,91.33
2023-01-09T22:02:12.822Z,92.20
2023-01-09T22:04:42.872Z,96.83
2023-01-09T22:07:11.047Z,102.33
2023-01-09T22:09:39.039Z,93.83
2023-01-09T22:12:07.517Z,96.63
2023-01-09T22:14:38.821Z,100.57
2023-01-09T22:17:06.833Z,92.47
2023-01-09T22:19:34.805Z,101.63
2023-01-09T22:22:07.142Z,94.53
2023-01-09T22:24:35.972Z,87.03
2023-01-09T22:27:04.093Z,91.03
2023-01-09T22:29:32.239Z,96.30
2023-01-09T22:32:01.578Z,94.60
2023-01-09T22:34:29.789Z,91.43
2023-01-09T22:36:57.859Z,93.23
2023-01-09T22:39:26.076Z,96.90
2023-01-09T22:41:55.162Z,90.13
2023-01-09T22:44:23.171Z,89.60
2023-01-09T22:46:51.034Z,96.03
2023-01-09T22:49:20.418Z,94.30
2023-01-09T22:51:48.353Z,98.83
2023-01-09T22:54:16.429Z,87.43
2023-01-09T22:56:44.408Z,93.57
2023-01-09T22:59:12.361Z,97.20
2023-01-09T23:01:40.394Z,96.00
2023-01-09T23:04:11.887Z,94.73
2023-01-09T23:06:41.142Z,104.37
2023-01-09T23:09:09.099Z,101.27
2023-01-09T23:11:54.384Z,95.97
2023-01-09T23:14:23.067Z,104.80
2023-01-09T23:16:51.074Z,88.40
2023-01-09T23:19:19.374Z,91.73
2023-01-09T23:21:48.824Z,93.40
2023-01-09T23:24:18.567Z,102.97
2023-01-09T23:26:47.611Z,90.03
2023-01-09T23:29:15.896Z,99.67
2023-01-09T23:31:43.930Z,97.90
2023-01-09T23:34:15.944Z,100.60
2023-01-09T23:36:43.953Z,100.90
2023-01-09T23:39:13.385Z,99.20
2023-01-09T23:41:59.592Z,105.67
2023-01-09T23:44:27.811Z,93.07
2023-01-09T23:46:55.816Z,100.97
2023-01-09T23:49:23.884Z,100.20
2023-01-09T23:51:51.912Z,95.30
2023-01-09T23:54:21.956Z,105.27
2023-01-09T23:56:49.919Z,107.77
2023-01-09T23:59:18.086Z,106.07
